Time;durP1;ratioP1;P1;durP2;ratioP2;P2;SDS_P1;SDS_P2;PMS_P1;PMS_P2;Temp;Humidity;BMP_temperature;BMP_pressure;BME280_temperature;BME280_humidity;BME280_pressure;Samples;Min_cycle;Max_cycle;Signal;HPM_P1;HPM_P2
2021/12/28 08:36:59;;;;;;;28.88;22.38;;;;;;;;;;6243366;22;20024;-90
2021/12/28 08:39:24;;;;;;;29.85;22.70;;;;;;;;;;6219964;23;20012;-90
2021/12/28 08:41:50;;;;;;;29.05;22.48;;;;;;;;;;6219907;23;20082;-88
2021/12/28 08:44:15;;;;;;;29.05;22.85;;;;;;;;;;6246264;23;20004;-89
2021/12/28 08:46:44;;;;;;;32.85;23.52;;;;;;;;;;6222401;23;20091;-93
2021/12/28 08:49:09;;;;;;;31.15;22.45;;;;;;;;;;6225674;23;20037;-90
2021/12/28 08:51:37;;;;;;;30.27;21.65;;;;;;;;;;6246960;23;20000;-90
2021/12/28 08:54:03;;;;;;;28.23;20.98;;;;;;;;;;6246619;23;20000;-88
2021/12/28 08:56:31;;;;;;;28.15;20.90;;;;;;;;;;6222375;23;20015;-93
2021/12/28 08:58:58;;;;;;;23.60;19.02;;;;;;;;;;6225645;23;20008;-95
2021/12/28 09:01:24;;;;;;;28.73;19.83;;;;;;;;;;6233616;23;20000;-96
2021/12/28 09:03:49;;;;;;;21.60;17.77;;;;;;;;;;6226481;23;20000;-96
2021/12/28 09:06:15;;;;;;;19.65;16.27;;;;;;;;;;6221231;23;20004;-95
2021/12/28 09:08:41;;;;;;;24.05;18.10;;;;;;;;;;6221702;23;20005;-95
2021/12/28 09:11:06;;;;;;;25.65;20.20;;;;;;;;;;6224265;23;20009;-93
2021/12/28 09:13:32;;;;;;;26.77;20.77;;;;;;;;;;6226506;23;20490;-92
2021/12/28 09:15:57;;;;;;;27.65;19.88;;;;;;;;;;6222672;23;20427;-94
2021/12/28 09:18:23;;;;;;;24.20;18.90;;;;;;;;;;6227771;23;20044;-96
2021/12/28 09:20:50;;;;;;;26.55;19.55;;;;;;;;;;6225637;23;20442;-95
2021/12/28 09:23:16;;;;;;;24.75;19.00;;;;;;;;;;6225005;23;20000;-96
2021/12/28 09:25:42;;;;;;;24.85;19.65;;;;;;;;;;6228274;23;20015;-96
2021/12/28 09:28:09;;;;;;;26.52;20.17;;;;;;;;;;6226015;23;20063;-96
2021/12/28 09:30:36;;;;;;;24.92;19.70;;;;;;;;;;6225245;23;20427;-94
2021/12/28 09:33:02;;;;;;;25.67;20.15;;;;;;;;;;6223586;23;20374;-94
2021/12/28 09:35:28;;;;;;;24.15;19.95;;;;;;;;;;6222706;23;20070;-93
2021/12/28 09:37:53;;;;;;;23.88;19.17;;;;;;;;;;6222348;23;20058;-96
2021/12/28 09:40:19;;;;;;;25.10;19.38;;;;;;;;;;6222832;23;20031;-95
2021/12/28 09:42:45;;;;;;;26.90;20.40;;;;;;;;;;6223025;23;20095;-94
2021/12/28 09:45:13;;;;;;;25.95;20.30;;;;;;;;;;6221936;23;20011;-89
2021/12/28 09:47:38;;;;;;;25.00;19.63;;;;;;;;;;6220709;23;20079;-89
2021/12/28 09:50:06;;;;;;;26.42;19.67;;;;;;;;;;6221656;23;20004;-90
2021/12/28 09:52:32;;;;;;;25.45;19.05;;;;;;;;;;6221495;23;20004;-91
2021/12/28 09:54:57;;;;;;;28.00;20.30;;;;;;;;;;6223945;23;20062;-91
2021/12/28 09:57:23;;;;;;;23.80;19.13;;;;;;;;;;6248363;23;20083;-91
2021/12/28 09:59:49;;;;;;;26.35;20.30;;;;;;;;;;6222243;23;20008;-91
2021/12/28 10:02:16;;;;;;;29.58;22.67;;;;;;;;;;6221742;23;20474;-89
2021/12/28 10:05:00;;;;;;;29.67;21.92;;;;;;;;;;6220790;23;20058;-86
2021/12/28 10:07:29;;;;;;;23.35;17.42;;;;;;;;;;6247286;23;20015;-86
2021/12/28 10:09:56;;;;;;;20.92;17.50;;;;;;;;;;6247506;23;20008;-86
2021/12/28 10:12:35;;;;;;;22.75;17.70;;;;;;;;;;6247645;23;20039;-87
2021/12/28 10:15:05;;;;;;;21.50;17.58;;;;;;;;;;6247583;23;20323;-85
2021/12/28 10:17:33;;;;;;;20.42;17.00;;;;;;;;;;6247378;23;20007;-88
2021/12/28 10:20:01;;;;;;;23.70;17.92;;;;;;;;;;6220612;23;20003;-87
2021/12/28 10:22:38;;;;;;;27.30;19.98;;;;;;;;;;6247694;23;19996;-89
2021/12/28 10:25:14;;;;;;;22.63;17.70;;;;;;;;;;6221036;23;20055;-87
2021/12/28 10:27:52;;;;;;;23.05;18.00;;;;;;;;;;6247524;23;20004;-86
2021/12/28 10:30:21;;;;;;;22.35;18.33;;;;;;;;;;6249725;23;20322;-87
2021/12/28 10:32:50;;;;;;;21.23;16.73;;;;;;;;;;6220279;23;20004;-86
2021/12/28 10:35:20;;;;;;;23.60;18.60;;;;;;;;;;6220268;23;20069;-88
2021/12/28 10:37:56;;;;;;;26.05;18.23;;;;;;;;;;6221064;23;20008;-90
2021/12/28 10:40:33;;;;;;;25.33;19.23;;;;;;;;;;6247230;23;20423;-87
2021/12/28 10:43:12;;;;;;;27.30;19.75;;;;;;;;;;6220460;23;20502;-87
2021/12/28 10:45:43;;;;;;;26.42;19.55;;;;;;;;;;6247212;23;20114;-87
2021/12/28 10:48:16;;;;;;;24.98;18.65;;;;;;;;;;6247267;23;20358;-89
2021/12/28 10:50:59;;;;;;;23.02;18.42;;;;;;;;;;6247523;23;20010;-87
2021/12/28 10:53:37;;;;;;;26.38;20.60;;;;;;;;;;6220236;23;20027;-87
2021/12/28 10:56:07;;;;;;;24.00;19.73;;;;;;;;;;6247307;23;20008;-85
2021/12/28 10:58:47;;;;;;;25.10;18.67;;;;;;;;;;6247175;23;20022;-86
2021/12/28 11:01:15;;;;;;;26.08;18.25;;;;;;;;;;6220574;23;19996;-89
2021/12/28 11:03:43;;;;;;;26.08;19.73;;;;;;;;;;6247089;23;20416;-88
2021/12/28 11:06:37;;;;;;;26.08;20.10;;;;;;;;;;6247464;23;20000;-87
2021/12/28 11:09:12;;;;;;;24.63;18.75;;;;;;;;;;6243438;23;20102;-85
2021/12/28 11:11:42;;;;;;;22.55;17.88;;;;;;;;;;6247028;23;20000;-89
2021/12/28 11:14:14;;;;;;;24.90;18.48;;;;;;;;;;6220678;23;20439;-89
2021/12/28 11:16:40;;;;;;;22.30;18.60;;;;;;;;;;6220148;23;20007;-86
2021/12/28 11:19:09;;;;;;;21.38;17.55;;;;;;;;;;6247163;23;20008;-85
2021/12/28 11:21:41;;;;;;;26.52;17.50;;;;;;;;;;6252785;23;20054;-84
2021/12/28 11:24:10;;;;;;;20.08;16.05;;;;;;;;;;6250567;23;20000;-88
2021/12/28 11:26:37;;;;;;;22.23;15.25;;;;;;;;;;6220329;23;20431;-85
2021/12/28 11:29:08;;;;;;;19.48;14.85;;;;;;;;;;6220044;23;20523;-88
2021/12/28 11:31:38;;;;;;;19.40;14.98;;;;;;;;;;6220093;23;20032;-84
2021/12/28 11:34:13;;;;;;;20.15;14.70;;;;;;;;;;6219837;23;20001;-87
2021/12/28 11:36:57;;;;;;;18.33;14.32;;;;;;;;;;6246373;23;20022;-86
2021/12/28 11:39:27;;;;;;;19.08;15.07;;;;;;;;;;6219894;23;20632;-89
2021/12/28 11:41:53;;;;;;;18.20;13.95;;;;;;;;;;6246599;23;20007;-86
2021/12/28 11:44:32;;;;;;;18.08;13.18;;;;;;;;;;6223936;23;20339;-96
2021/12/28 11:47:00;;;;;;;20.13;14.40;;;;;;;;;;6220800;23;20454;-92
2021/12/28 11:49:28;;;;;;;17.80;14.73;;;;;;;;;;6247373;23;20071;-88
2021/12/28 11:51:59;;;;;;;18.70;13.82;;;;;;;;;;6247381;23;20027;-85
2021/12/28 11:54:26;;;;;;;18.40;14.27;;;;;;;;;;6247232;23;20000;-89
2021/12/28 11:57:00;;;;;;;18.42;14.10;;;;;;;;;;6220210;23;20000;-88
2021/12/28 11:59:30;;;;;;;20.00;14.55;;;;;;;;;;6246986;23;20066;-88
2021/12/28 12:01:57;;;;;;;;;;;;;;;;;;6220855;23;20358;-94
2021/12/28 12:04:34;;;;;;;16.63;13.30;;;;;;;;;;6221090;23;19961;-93
2021/12/28 12:07:16;;;;;;;19.50;14.25;;;;;;;;;;6219802;23;20031;-89
2021/12/28 12:09:51;;;;;;;20.33;14.85;;;;;;;;;;6220191;23;20066;-88
2021/12/28 12:12:26;;;;;;;16.80;13.45;;;;;;;;;;6247190;23;19996;-93
2021/12/28 12:15:03;;;;;;;15.93;13.98;;;;;;;;;;6219852;23;20000;-91
2021/12/28 12:17:34;;;;;;;16.20;13.93;;;;;;;;;;6219983;23;20004;-93
2021/12/28 12:20:03;;;;;;;18.73;15.50;;;;;;;;;;6246784;23;20075;-89
2021/12/28 12:22:33;;;;;;;21.40;15.18;;;;;;;;;;6219911;23;20023;-92
2021/12/28 12:25:09;;;;;;;20.20;14.68;;;;;;;;;;6220006;23;20039;-89
2021/12/28 12:27:54;;;;;;;21.65;15.35;;;;;;;;;;6246996;23;20006;-88
2021/12/28 12:30:28;;;;;;;21.02;15.43;;;;;;;;;;6221176;23;20000;-93
2021/12/28 12:33:08;;;;;;;18.58;15.30;;;;;;;;;;6223346;23;20058;-87
2021/12/28 12:35:38;;;;;;;;;;;;;;;;;;6246915;23;20070;-87
2021/12/28 12:38:24;;;;;;;;;;;;;;;;;;6220591;23;19960;-88
2021/12/28 12:41:16;;;;;;;19.92;15.13;;;;;;;;;;6220259;23;19907;-87
2021/12/28 12:43:43;;;;;;;20.30;15.48;;;;;;;;;;6246231;23;20008;-87
2021/12/28 12:46:18;;;;;;;20.20;15.63;;;;;;;;;;6220303;23;20008;-88
2021/12/28 12:48:43;;;;;;;18.35;14.27;;;;;;;;;;6221926;23;20016;-88
2021/12/28 12:54:02;;;;;;;18.90;15.10;;;;;;;;;;6248788;23;20335;-90
2021/12/28 12:56:38;;;;;;;18.08;15.10;;;;;;;;;;6222728;23;20000;-95
2021/12/28 12:59:24;;;;;;;21.08;15.73;;;;;;;;;;6251083;23;20058;-92
2021/12/28 13:02:01;;;;;;;20.77;16.23;;;;;;;;;;6249070;23;20015;-90
2021/12/28 13:04:26;;;;;;;18.95;15.48;;;;;;;;;;6221684;23;20039;-93
2021/12/28 13:07:00;;;;;;;18.58;14.32;;;;;;;;;;6248802;23;20000;-88
2021/12/28 13:09:25;;;;;;;18.10;15.23;;;;;;;;;;6221373;23;20390;-93
2021/12/28 13:11:52;;;;;;;18.05;14.07;;;;;;;;;;6249352;23;20027;-94
2021/12/28 13:14:18;;;;;;;20.67;15.27;;;;;;;;;;6248828;23;20091;-94
2021/12/28 13:16:56;;;;;;;20.67;16.17;;;;;;;;;;6249627;23;20000;-90
2021/12/28 13:19:21;;;;;;;20.55;16.13;;;;;;;;;;6221649;23;20008;-90
2021/12/28 13:22:00;;;;;;;17.33;14.73;;;;;;;;;;6247167;23;20027;-88
2021/12/28 13:24:27;;;;;;;20.13;14.70;;;;;;;;;;6247548;23;20004;-90
2021/12/28 13:26:57;;;;;;;19.60;14.55;;;;;;;;;;6248024;23;20016;-92
2021/12/28 13:29:23;;;;;;;20.10;15.60;;;;;;;;;;6248470;23;20008;-92
2021/12/28 13:31:49;;;;;;;20.88;16.67;;;;;;;;;;6248309;23;20004;-89
2021/12/28 13:34:15;;;;;;;21.25;15.40;;;;;;;;;;6221304;23;20005;-92
2021/12/28 13:36:59;;;;;;;20.42;16.13;;;;;;;;;;6248200;23;20019;-92
2021/12/28 13:39:25;;;;;;;22.30;16.98;;;;;;;;;;6248400;23;20079;-92
2021/12/28 13:41:52;;;;;;;20.52;14.98;;;;;;;;;;6248259;23;20046;-91
2021/12/28 13:44:17;;;;;;;24.52;17.45;;;;;;;;;;6248005;23;20004;-92
2021/12/28 13:46:43;;;;;;;17.25;13.68;;;;;;;;;;6248117;23;20067;-92
2021/12/28 13:49:12;;;;;;;20.02;15.65;;;;;;;;;;6248013;23;20023;-92
2021/12/28 13:51:38;;;;;;;25.42;16.40;;;;;;;;;;6221283;23;20378;-91
2021/12/28 13:54:05;;;;;;;27.17;19.95;;;;;;;;;;6247911;23;20024;-89
2021/12/28 13:56:42;;;;;;;24.20;19.00;;;;;;;;;;6248289;23;20062;-93
2021/12/28 13:59:10;;;;;;;27.83;20.20;;;;;;;;;;6247316;23;20004;-91
2021/12/28 14:01:41;;;;;;;33.72;22.90;;;;;;;;;;6221525;23;20004;-90
2021/12/28 14:04:16;;;;;;;29.75;19.98;;;;;;;;;;6221032;23;20012;-91
2021/12/28 14:06:44;;;;;;;23.85;18.13;;;;;;;;;;6247910;23;20011;-91
2021/12/28 14:09:12;;;;;;;21.35;17.30;;;;;;;;;;6247785;23;20054;-89
2021/12/28 14:11:57;;;;;;;20.00;16.15;;;;;;;;;;6247999;23;20443;-91
2021/12/28 14:14:26;;;;;;;22.80;17.33;;;;;;;;;;6221053;23;20019;-90
2021/12/28 14:16:55;;;;;;;22.23;17.45;;;;;;;;;;6248115;23;20000;-91
2021/12/28 14:19:27;;;;;;;20.05;17.90;;;;;;;;;;6248098;23;20004;-91
2021/12/28 14:21:53;;;;;;;21.52;16.52;;;;;;;;;;6247871;23;20004;-91
2021/12/28 14:24:18;;;;;;;22.48;17.85;;;;;;;;;;6247626;23;20057;-88
2021/12/28 14:26:49;;;;;;;22.63;18.15;;;;;;;;;;6221045;23;20331;-88
2021/12/28 14:29:23;;;;;;;21.05;16.30;;;;;;;;;;6247848;23;20008;-92
2021/12/28 14:31:50;;;;;;;19.48;15.65;;;;;;;;;;6247741;23;20000;-91
2021/12/28 14:34:36;;;;;;;21.05;16.98;;;;;;;;;;6247702;23;20008;-93
2021/12/28 14:37:22;;;;;;;22.58;17.02;;;;;;;;;;6247320;23;20024;-92
2021/12/28 14:39:53;;;;;;;22.75;17.27;;;;;;;;;;6246820;23;20099;-92
2021/12/28 14:42:30;;;;;;;21.08;16.42;;;;;;;;;;6247694;23;20004;-90
2021/12/28 14:45:10;;;;;;;23.05;17.67;;;;;;;;;;6221027;23;20053;-92
2021/12/28 14:47:36;;;;;;;;;;;;;;;;;;6248590;23;20004;-93
2021/12/28 14:50:32;;;;;;;21.70;15.85;;;;;;;;;;6247683;23;19927;-92
2021/12/28 14:53:01;;;;;;;22.58;17.75;;;;;;;;;;6218543;23;20007;-93
2021/12/28 14:55:36;;;;;;;22.83;17.27;;;;;;;;;;6247796;23;20004;-92
2021/12/28 14:58:08;;;;;;;21.33;16.95;;;;;;;;;;6247756;23;20004;-93
2021/12/28 15:00:33;;;;;;;21.67;16.92;;;;;;;;;;6247584;23;20032;-93
2021/12/28 15:03:24;;;;;;;21.33;17.50;;;;;;;;;;6247479;23;20320;-91
2021/12/28 15:05:56;;;;;;;20.30;16.27;;;;;;;;;;6247550;23;20331;-92
2021/12/28 15:08:23;;;;;;;23.40;17.27;;;;;;;;;;6247184;23;20488;-90
2021/12/28 15:10:51;;;;;;;20.85;16.60;;;;;;;;;;6247546;23;20004;-91
2021/12/28 15:13:23;;;;;;;21.00;16.38;;;;;;;;;;6220839;23;20083;-93
2021/12/28 15:15:49;;;;;;;20.38;16.90;;;;;;;;;;6247297;23;20027;-89
2021/12/28 15:18:16;;;;;;;21.98;17.63;;;;;;;;;;6247639;23;20027;-90
2021/12/28 15:20:42;;;;;;;25.25;18.05;;;;;;;;;;6247154;23;20067;-92
2021/12/28 15:23:08;;;;;;;20.13;16.50;;;;;;;;;;6220404;23;20039;-92
2021/12/28 15:25:34;;;;;;;22.50;17.75;;;;;;;;;;6220200;23;20054;-93
2021/12/28 15:28:00;;;;;;;24.30;18.40;;;;;;;;;;6246815;23;20004;-90
2021/12/28 15:30:39;;;;;;;24.90;18.58;;;;;;;;;;6247076;23;19996;-92
2021/12/28 15:33:06;;;;;;;24.98;17.63;;;;;;;;;;6247017;23;20101;-92
2021/12/28 15:35:34;;;;;;;25.35;18.70;;;;;;;;;;6220763;23;20020;-92
2021/12/28 15:38:04;;;;;;;23.75;17.45;;;;;;;;;;6220544;23;20011;-92
2021/12/28 15:40:39;;;;;;;21.88;17.15;;;;;;;;;;6247294;23;20007;-90
2021/12/28 15:43:07;;;;;;;22.48;17.08;;;;;;;;;;6220082;23;20087;-89
2021/12/28 15:45:33;;;;;;;24.98;18.45;;;;;;;;;;6247295;23;20004;-90
2021/12/28 15:47:59;;;;;;;24.05;19.15;;;;;;;;;;6220076;23;20008;-91
2021/12/28 15:50:25;;;;;;;25.58;18.92;;;;;;;;;;6219450;23;20004;-88
2021/12/28 15:52:50;;;;;;;22.45;17.38;;;;;;;;;;6219050;23;20004;-90
2021/12/28 15:55:17;;;;;;;22.27;16.80;;;;;;;;;;6219137;23;20023;-88
2021/12/28 15:57:42;;;;;;;23.95;17.30;;;;;;;;;;6246561;23;20431;-88
2021/12/28 16:00:12;;;;;;;22.63;17.52;;;;;;;;;;6219925;23;20061;-91
2021/12/28 16:02:37;;;;;;;21.55;17.75;;;;;;;;;;6246744;23;20000;-86
2021/12/28 16:05:03;;;;;;;24.55;17.95;;;;;;;;;;6246423;23;20083;-86
2021/12/28 16:07:29;;;;;;;25.50;18.33;;;;;;;;;;6246637;23;20000;-90
2021/12/28 16:09:55;;;;;;;24.05;17.90;;;;;;;;;;6246480;23;20407;-88
2021/12/28 16:12:20;;;;;;;23.73;17.63;;;;;;;;;;6247150;23;20070;-87
2021/12/28 16:14:46;;;;;;;22.48;17.20;;;;;;;;;;6247179;23;20003;-92
2021/12/28 16:17:11;;;;;;;25.48;18.83;;;;;;;;;;6247479;23;20000;-88
2021/12/28 16:19:38;;;;;;;23.77;17.75;;;;;;;;;;6246917;23;20434;-87
2021/12/28 16:22:11;;;;;;;24.23;17.52;;;;;;;;;;6246513;23;20162;-87
2021/12/28 16:24:38;;;;;;;22.38;17.15;;;;;;;;;;6219874;23;20005;-92
2021/12/28 16:27:04;;;;;;;22.55;16.35;;;;;;;;;;6246630;23;20074;-89
2021/12/28 16:29:29;;;;;;;21.95;16.90;;;;;;;;;;6220375;23;20419;-92
2021/12/28 16:31:56;;;;;;;24.27;17.73;;;;;;;;;;6246943;23;20016;-88
2021/12/28 16:34:22;;;;;;;23.83;17.42;;;;;;;;;;6246680;23;20011;-89
2021/12/28 16:36:47;;;;;;;23.90;17.73;;;;;;;;;;6246698;23;20019;-90
2021/12/28 16:39:16;;;;;;;24.10;18.33;;;;;;;;;;6219973;23;20020;-89
2021/12/28 16:41:42;;;;;;;25.58;16.25;;;;;;;;;;6220109;23;19997;-91
2021/12/28 16:44:08;;;;;;;22.08;17.05;;;;;;;;;;6246772;23;20014;-94
2021/12/28 16:46:34;;;;;;;22.55;16.20;;;;;;;;;;6246610;23;20427;-88
2021/12/28 16:49:00;;;;;;;20.95;15.23;;;;;;;;;;6247172;23;20018;-87
2021/12/28 16:51:27;;;;;;;19.55;15.55;;;;;;;;;;6246847;23;20071;-87
2021/12/28 16:53:52;;;;;;;22.88;16.98;;;;;;;;;;6219805;23;20015;-86
2021/12/28 16:56:18;;;;;;;28.67;19.23;;;;;;;;;;6246390;23;20427;-89
2021/12/28 16:58:44;;;;;;;25.13;18.45;;;;;;;;;;6246691;23;20007;-89
2021/12/28 17:01:09;;;;;;;22.50;17.02;;;;;;;;;;6246487;23;20475;-87
2021/12/28 17:03:35;;;;;;;26.17;18.48;;;;;;;;;;6246217;23;20004;-89
2021/12/28 18:32:52;;;;;;;27.83;18.63;;;;;;;;;;6240074;22;20558;-90
2021/12/28 18:35:18;;;;;;;25.55;17.73;;;;;;;;;;6222236;23;20066;-92
2021/12/28 18:37:44;;;;;;;23.95;17.35;;;;;;;;;;6248695;23;20004;-92
2021/12/28 18:40:10;;;;;;;23.92;17.55;;;;;;;;;;6249338;23;20004;-92
2021/12/28 18:42:36;;;;;;;22.08;17.25;;;;;;;;;;6253075;23;19996;-93
2021/12/28 18:45:04;;;;;;;27.33;18.67;;;;;;;;;;6247990;23;20000;-87
2021/12/28 18:47:30;;;;;;;26.70;19.15;;;;;;;;;;6248763;23;20048;-89
2021/12/28 18:49:55;;;;;;;41.90;26.73;;;;;;;;;;6220970;23;20445;-89
2021/12/28 18:52:21;;;;;;;40.15;26.42;;;;;;;;;;6248133;23;20000;-90
2021/12/28 18:54:46;;;;;;;43.45;28.30;;;;;;;;;;6248121;23;20004;-92
2021/12/28 18:57:13;;;;;;;42.80;26.45;;;;;;;;;;6247886;23;20027;-94
2021/12/28 18:59:39;;;;;;;41.58;25.45;;;;;;;;;;6247272;23;20000;-85
2021/12/28 19:02:05;;;;;;;37.13;24.05;;;;;;;;;;6248046;23;20450;-88
2021/12/28 19:04:30;;;;;;;36.75;25.17;;;;;;;;;;6247496;23;20011;-89
2021/12/28 19:06:57;;;;;;;30.73;22.13;;;;;;;;;;6247714;23;19996;-89
2021/12/28 19:09:25;;;;;;;37.05;24.70;;;;;;;;;;6247481;23;20015;-90
2021/12/28 19:11:52;;;;;;;35.80;25.27;;;;;;;;;;6247606;23;20435;-87
2021/12/28 19:14:17;;;;;;;34.40;24.13;;;;;;;;;;6220649;23;20004;-93
2021/12/28 19:16:43;;;;;;;31.95;23.02;;;;;;;;;;6221949;23;20079;-89
2021/12/28 19:19:09;;;;;;;34.15;25.23;;;;;;;;;;6247512;23;20039;-91
2021/12/28 19:21:34;;;;;;;30.40;22.50;;;;;;;;;;6248113;23;20004;-92
2021/12/28 19:24:00;;;;;;;28.92;22.40;;;;;;;;;;6221257;23;20381;-90
2021/12/28 19:26:25;;;;;;;32.13;22.45;;;;;;;;;;6221764;23;20004;-89
2021/12/28 19:28:54;;;;;;;32.97;22.98;;;;;;;;;;6254914;22;20003;-90
2021/12/28 19:35:05;;;;;;;28.88;21.73;;;;;;;;;;6272159;23;20047;-87
2021/12/28 19:37:56;;;;;;;29.23;21.17;;;;;;;;;;6216304;23;20025;-87
2021/12/28 19:40:45;;;;;;;29.13;19.38;;;;;;;;;;6236738;23;20013;-87
2021/12/28 19:43:37;;;;;;;30.80;20.73;;;;;;;;;;6214877;23;20048;-89
2021/12/28 19:46:28;;;;;;;26.15;18.27;;;;;;;;;;6239351;23;20012;-88
2021/12/28 19:48:53;;;;;;;23.33;18.25;;;;;;;;;;6227968;23;20423;-92
2021/12/28 19:51:21;;;;;;;28.65;21.35;;;;;;;;;;6217530;23;20047;-94
2021/12/28 19:53:47;;;;;;;31.13;22.75;;;;;;;;;;6219196;23;20005;-93
2021/12/28 19:56:13;;;;;;;31.23;22.35;;;;;;;;;;6217430;23;20070;-94
2021/12/28 19:58:38;;;;;;;32.08;23.50;;;;;;;;;;6215832;23;20009;-94
2021/12/28 20:01:04;;;;;;;33.75;23.52;;;;;;;;;;6217677;23;20005;-95
2021/12/28 20:03:29;;;;;;;31.70;24.58;;;;;;;;;;6215903;23;20005;-95
2021/12/28 20:05:55;;;;;;;32.25;23.95;;;;;;;;;;6216191;23;20001;-95
2021/12/28 20:08:21;;;;;;;34.00;25.42;;;;;;;;;;6216043;23;20009;-92
2021/12/28 20:10:46;;;;;;;36.75;23.73;;;;;;;;;;6216989;23;20008;-91
2021/12/28 20:13:13;;;;;;;31.67;22.73;;;;;;;;;;6215980;23;20004;-92
2021/12/28 20:15:40;;;;;;;34.58;23.00;;;;;;;;;;6217291;23;20005;-93
2021/12/28 20:18:09;;;;;;;34.20;21.33;;;;;;;;;;6217541;23;20004;-94
2021/12/28 20:20:35;;;;;;;36.20;26.33;;;;;;;;;;6217138;23;20436;-93
2021/12/28 20:23:00;;;;;;;33.47;22.65;;;;;;;;;;6217259;23;20031;-93
2021/12/28 20:25:26;;;;;;;25.67;18.90;;;;;;;;;;6217231;23;20190;-94
2021/12/28 20:27:55;;;;;;;23.80;19.45;;;;;;;;;;6215650;23;20013;-93
2021/12/28 20:30:22;;;;;;;26.95;18.67;;;;;;;;;;6216887;23;20007;-93
2021/12/28 20:32:50;;;;;;;27.08;19.65;;;;;;;;;;6229475;23;19989;-86
2021/12/28 20:36:11;;;;;;;23.15;16.95;;;;;;;;;;6239749;23;20000;-89
2021/12/28 20:38:38;;;;;;;22.73;15.98;;;;;;;;;;6240666;23;20000;-89
2021/12/28 20:41:21;;;;;;;22.92;15.80;;;;;;;;;;6232733;23;20004;-95
2021/12/28 20:44:25;;;;;;;23.95;17.45;;;;;;;;;;6235502;23;20024;-95
2021/12/28 20:47:36;;;;;;;28.42;19.83;;;;;;;;;;6232374;23;20072;-89
2021/12/28 20:50:37;;;;;;;29.63;22.35;;;;;;;;;;6270638;23;20043;-90
2021/12/28 20:53:05;;;;;;;23.38;18.23;;;;;;;;;;6270480;23;20317;-94
2021/12/28 20:55:30;;;;;;;40.42;21.08;;;;;;;;;;6258269;23;20031;-92
2021/12/28 20:58:01;;;;;;;28.90;20.85;;;;;;;;;;6259720;23;20014;-86
2021/12/28 21:00:28;;;;;;;27.40;20.33;;;;;;;;;;6263889;23;20023;-91
2021/12/28 21:03:05;;;;;;;30.40;19.88;;;;;;;;;;6210901;23;20008;-91
2021/12/28 21:05:32;;;;;;;27.13;19.60;;;;;;;;;;6267573;23;20016;-89
2021/12/28 21:07:58;;;;;;;31.63;22.67;;;;;;;;;;6254908;23;20000;-91
2021/12/28 21:10:27;;;;;;;27.00;18.50;;;;;;;;;;6261275;23;20003;-95
2021/12/28 21:12:56;;;;;;;26.35;18.40;;;;;;;;;;6258506;23;20004;-92
2021/12/28 21:15:23;;;;;;;25.95;20.05;;;;;;;;;;6257425;23;20063;-95
2021/12/28 21:17:50;;;;;;;27.17;20.98;;;;;;;;;;6233286;23;20012;-93
2021/12/28 21:20:21;;;;;;;25.75;19.75;;;;;;;;;;6231073;23;20083;-94
2021/12/28 21:22:46;;;;;;;25.67;18.00;;;;;;;;;;6207060;23;20007;-94
2021/12/28 21:25:15;;;;;;;24.98;18.17;;;;;;;;;;6255386;23;20007;-95
2021/12/28 21:27:47;;;;;;;24.95;18.85;;;;;;;;;;6259942;23;20008;-94
2021/12/28 21:30:15;;;;;;;25.17;18.75;;;;;;;;;;6250589;23;20000;-94
2021/12/28 21:32:41;;;;;;;25.42;19.48;;;;;;;;;;6249001;23;20007;-93
2021/12/28 21:35:08;;;;;;;26.80;19.67;;;;;;;;;;6248742;23;20000;-94
2021/12/28 21:37:39;;;;;;;22.15;17.75;;;;;;;;;;6253202;23;20082;-93
2021/12/28 21:40:06;;;;;;;24.00;16.75;;;;;;;;;;6253697;23;20000;-96
2021/12/28 21:42:38;;;;;;;23.50;17.00;;;;;;;;;;6230073;23;20039;-91
2021/12/28 21:45:14;;;;;;;22.13;16.55;;;;;;;;;;6213308;23;20071;-92
2021/12/28 21:48:16;;;;;;;21.02;15.82;;;;;;;;;;6239820;23;20005;-85
2021/12/28 21:51:09;;;;;;;22.27;17.17;;;;;;;;;;6204265;23;20027;-87
2021/12/28 21:53:35;;;;;;;24.42;19.08;;;;;;;;;;6207159;23;20021;-85
2021/12/28 21:56:01;;;;;;;25.65;18.20;;;;;;;;;;6227797;23;20427;-87
2021/12/28 21:58:29;;;;;;;24.95;18.80;;;;;;;;;;6237008;23;20056;-85
2021/12/28 22:01:09;;;;;;;27.35;18.35;;;;;;;;;;6242850;22;20009;-88
2021/12/28 22:03:55;;;;;;;23.50;17.08;;;;;;;;;;6235815;23;20096;-92
2021/12/28 22:06:21;;;;;;;24.85;18.98;;;;;;;;;;6230620;23;20012;-95
2021/12/28 22:08:49;;;;;;;26.25;18.15;;;;;;;;;;6232608;23;20030;-95
2021/12/28 22:11:18;;;;;;;23.52;17.50;;;;;;;;;;6235818;23;20004;-96
2021/12/28 22:13:55;;;;;;;25.00;20.45;;;;;;;;;;6240236;23;20007;-94
2021/12/28 22:16:21;;;;;;;25.52;21.95;;;;;;;;;;6237388;23;20001;-96
2021/12/28 22:18:51;;;;;;;29.40;25.02;;;;;;;;;;6212726;23;20024;-96
2021/12/28 22:21:22;;;;;;;24.92;19.80;;;;;;;;;;6238560;23;20007;-96
2021/12/28 22:23:49;;;;;;;27.08;20.65;;;;;;;;;;6209863;23;20013;-93
2021/12/28 22:26:15;;;;;;;26.95;20.75;;;;;;;;;;6230452;23;19996;-92
2021/12/28 22:28:41;;;;;;;25.23;18.88;;;;;;;;;;6228333;23;20012;-94
2021/12/28 22:31:07;;;;;;;25.88;19.33;;;;;;;;;;6228925;23;20011;-90
2021/12/28 22:33:34;;;;;;;28.98;20.65;;;;;;;;;;6231683;23;20084;-89
2021/12/28 22:36:01;;;;;;;25.00;20.08;;;;;;;;;;6230182;23;20028;-93
2021/12/28 22:38:28;;;;;;;27.52;20.75;;;;;;;;;;6231598;23;20017;-92
2021/12/28 22:40:53;;;;;;;29.83;22.83;;;;;;;;;;6227609;23;20075;-88
2021/12/28 22:43:19;;;;;;;26.45;18.70;;;;;;;;;;6222058;23;20446;-85
2021/12/28 22:45:45;;;;;;;25.20;18.15;;;;;;;;;;6196595;23;20070;-89
2021/12/28 22:48:11;;;;;;;26.85;18.50;;;;;;;;;;6224554;23;20012;-85
2021/12/28 22:50:41;;;;;;;27.60;20.02;;;;;;;;;;6224230;23;20039;-87
2021/12/28 22:53:13;;;;;;;25.58;19.98;;;;;;;;;;6225803;23;20432;-86
2021/12/28 22:55:39;;;;;;;25.52;18.50;;;;;;;;;;6225753;23;20009;-91
2021/12/28 22:58:07;;;;;;;26.08;19.90;;;;;;;;;;6225343;23;20024;-88
2021/12/28 23:00:58;;;;;;;28.35;20.55;;;;;;;;;;6224829;23;20011;-85
2021/12/28 23:03:33;;;;;;;29.00;19.52;;;;;;;;;;6132904;23;20021;-91
2021/12/28 23:06:00;;;;;;;26.08;19.23;;;;;;;;;;6103653;23;20006;-94
2021/12/28 23:08:27;;;;;;;25.10;19.38;;;;;;;;;;6101716;23;20013;-88
2021/12/28 23:10:53;;;;;;;26.38;19.40;;;;;;;;;;6125756;23;20017;-93
2021/12/28 23:13:19;;;;;;;23.48;17.10;;;;;;;;;;6125796;23;20006;-93
2021/12/28 23:15:44;;;;;;;22.23;16.77;;;;;;;;;;6126090;23;20013;-94
